Time;durP1;ratioP1;P1;durP2;ratioP2;P2;SDS_P1;SDS_P2;PMS_P1;PMS_P2;Temp;Humidity;BMP_temperature;BMP_pressure;BME280_temperature;BME280_humidity;BME280_pressure;Samples;Min_cycle;Max_cycle;Signal;HPM_P1;HPM_P2
2023/04/24 00:00:37;;;;;;;30.17;17.63;;;;;;;13.49;53.85;97576.94;5012941;28;20022;-66
2023/04/24 00:03:03;;;;;;;28.67;18.20;;;;;;;13.49;53.92;97576.94;5012887;28;20042;-65
2023/04/24 00:05:29;;;;;;;37.58;21.73;;;;;;;13.51;53.86;97573.88;5012814;28;20030;-65
2023/04/24 00:07:55;;;;;;;34.80;20.70;;;;;;;13.50;54.42;97570.28;5012896;28;20484;-66
2023/04/24 00:10:20;;;;;;;36.45;20.40;;;;;;;13.51;53.86;97563.63;5012835;28;20034;-66
2023/04/24 00:12:46;;;;;;;34.28;19.77;;;;;;;13.51;53.65;97571.13;5012829;28;20400;-65
2023/04/24 00:15:11;;;;;;;35.15;19.02;;;;;;;13.51;53.84;97571.13;5012667;28;20057;-65
2023/04/24 00:17:37;;;;;;;30.05;17.23;;;;;;;13.52;53.71;97567.22;5011378;28;20162;-66
2023/04/24 00:20:04;;;;;;;30.52;17.77;;;;;;;13.50;53.72;97555.72;5012706;28;20037;-65
2023/04/24 00:22:30;;;;;;;28.52;17.25;;;;;;;13.50;53.67;97553.75;5012579;28;20113;-66
2023/04/24 00:24:56;;;;;;;26.60;16.63;;;;;;;13.51;53.67;97552.63;5012594;28;20037;-65
2023/04/24 00:27:22;;;;;;;27.58;15.40;;;;;;;13.51;53.74;97549.88;5012769;28;20030;-66
2023/04/24 00:29:47;;;;;;;23.92;15.20;;;;;;;13.50;53.69;97548.25;5012450;28;20033;-66
2023/04/24 00:32:13;;;;;;;23.52;15.48;;;;;;;13.49;53.57;97543.88;5012550;28;20026;-66
2023/04/24 00:34:39;;;;;;;25.80;17.23;;;;;;;13.51;53.30;97540.81;5012427;28;20525;-66
2023/04/24 00:37:05;;;;;;;25.98;16.23;;;;;;;13.50;53.65;97530.94;5012384;28;20022;-66
2023/04/24 00:39:30;;;;;;;22.83;15.82;;;;;;;13.52;53.76;97529.44;5012439;28;20026;-66
2023/04/24 00:41:56;;;;;;;25.98;15.63;;;;;;;13.53;53.60;97533.03;5012332;28;20028;-66
2023/04/24 00:44:22;;;;;;;23.80;14.85;;;;;;;13.53;53.61;97530.25;5012371;28;20096;-66
2023/04/24 00:46:51;;;;;;;20.60;13.57;;;;;;;13.51;53.38;97527.84;5012450;28;20437;-66
2023/04/24 00:49:18;;;;;;;20.10;13.10;;;;;;;13.53;53.39;97524.75;5012331;28;20105;-66
2023/04/24 00:51:45;;;;;;;20.20;13.73;;;;;;;13.53;53.50;97524.75;5012203;28;20029;-66
2023/04/24 00:54:11;;;;;;;18.58;11.43;;;;;;;13.53;53.19;97525.53;5012140;28;20030;-66
2023/04/24 00:56:36;;;;;;;17.38;11.60;;;;;;;13.54;53.28;97520.84;5012171;28;20110;-66
2023/04/24 00:59:02;;;;;;;17.92;11.30;;;;;;;13.54;53.08;97527.16;5012227;28;20527;-66
2023/04/24 01:01:28;;;;;;;23.25;15.02;;;;;;;13.52;52.94;97523.13;4994569;28;20054;-66
2023/04/24 01:03:53;;;;;;;25.95;15.52;;;;;;;13.49;52.98;97521.84;5011930;28;20046;-66
2023/04/24 01:06:20;;;;;;;30.95;20.10;;;;;;;13.47;52.67;97520.59;5011964;28;20030;-67
2023/04/24 01:08:47;;;;;;;33.70;21.02;;;;;;;13.45;52.95;97517.38;5011942;28;20416;-66
2023/04/24 01:11:13;;;;;;;36.50;24.02;;;;;;;13.45;53.11;97517.38;5012011;28;20494;-65
2023/04/24 01:13:39;;;;;;;32.97;22.50;;;;;;;13.46;52.98;97505.22;5011793;28;20029;-66
2023/04/24 01:16:05;;;;;;;27.25;16.90;;;;;;;13.45;53.14;97512.66;5011901;28;20029;-66
2023/04/24 01:18:32;;;;;;;23.15;14.48;;;;;;;13.45;52.99;97509.09;5011718;28;20030;-66
2023/04/24 01:20:59;;;;;;;23.92;13.75;;;;;;;13.45;53.11;97514.63;5011807;28;20127;-66
2023/04/24 01:23:26;;;;;;;19.60;13.00;;;;;;;13.47;52.99;97509.56;4994263;28;20032;-66
2023/04/24 01:25:52;;;;;;;20.73;12.88;;;;;;;13.47;52.98;97512.34;5011584;28;20026;-66
2023/04/24 01:28:17;;;;;;;18.58;12.13;;;;;;;13.46;53.18;97507.97;5011161;28;20038;-66
2023/04/24 01:30:43;;;;;;;18.92;12.43;;;;;;;13.46;52.92;97507.97;5011868;28;20529;-66
2023/04/24 01:33:08;;;;;;;14.98;10.18;;;;;;;13.44;52.89;97504.75;5011657;28;20030;-65
2023/04/24 01:35:35;;;;;;;15.93;10.65;;;;;;;13.44;52.83;97499.22;5011609;28;20108;-65
2023/04/24 01:38:01;;;;;;;16.30;10.05;;;;;;;13.43;52.34;97503.13;5011432;28;20083;-65
2023/04/24 01:40:27;;;;;;;16.30;11.27;;;;;;;13.44;52.77;97504.75;5011510;28;20030;-65
2023/04/24 01:42:52;;;;;;;15.38;10.63;;;;;;;13.43;52.45;97503.13;5011485;28;20021;-66
2023/04/24 01:45:18;;;;;;;14.80;9.93;;;;;;;13.43;52.64;97490.19;5011355;28;20038;-66
2023/04/24 01:47:44;;;;;;;14.23;10.43;;;;;;;13.43;52.34;97494.88;5011411;28;20108;-65
2023/04/24 01:50:10;;;;;;;15.65;10.63;;;;;;;13.40;52.24;97491.63;5011327;28;20052;-66
2023/04/24 01:52:36;;;;;;;13.48;9.98;;;;;;;13.41;52.58;97489.72;4993893;28;20464;-65
2023/04/24 01:55:05;;;;;;;14.82;10.48;;;;;;;13.42;52.71;97496.00;5011359;28;20109;-66
2023/04/24 01:57:31;;;;;;;14.75;10.20;;;;;;;13.42;52.44;97485.81;4993633;28;20034;-66
2023/04/24 01:59:57;;;;;;;16.40;10.52;;;;;;;13.42;52.27;97487.75;5011227;28;20057;-65
2023/04/24 02:02:23;;;;;;;16.50;10.55;;;;;;;13.42;52.45;97487.75;5010928;28;20065;-65
2023/04/24 02:04:52;;;;;;;17.63;10.82;;;;;;;13.42;52.40;97485.81;5011051;28;20030;-66
2023/04/24 02:07:18;;;;;;;18.17;10.60;;;;;;;13.42;52.40;97477.56;5011211;28;20030;-65
2023/04/24 02:09:43;;;;;;;15.52;10.77;;;;;;;13.42;52.34;97485.00;5010880;28;20269;-66
2023/04/24 02:12:08;;;;;;;19.13;11.23;;;;;;;13.41;52.45;97481.44;5007948;28;20029;-66
2023/04/24 02:14:34;;;;;;;14.55;10.35;;;;;;;13.40;52.35;97475.09;4993051;28;20382;-66
2023/04/24 02:17:00;;;;;;;16.48;10.45;;;;;;;13.40;52.27;97486.09;5010524;28;20392;-65
2023/04/24 02:19:26;;;;;;;15.52;10.00;;;;;;;13.38;52.31;97477.38;4993554;28;20450;-65
2023/04/24 02:21:51;;;;;;;17.40;10.25;;;;;;;13.38;52.28;97469.13;5010748;28;20030;-65
2023/04/24 02:24:16;;;;;;;16.50;10.30;;;;;;;13.38;52.42;97477.38;5010772;28;20033;-65
2023/04/24 02:26:42;;;;;;;18.35;10.35;;;;;;;13.40;52.08;97482.56;4993067;28;20057;-65
2023/04/24 02:29:07;;;;;;;15.55;10.32;;;;;;;13.40;52.17;97472.34;5010767;28;20025;-65
2023/04/24 02:31:32;;;;;;;16.02;10.32;;;;;;;13.42;52.33;97469.28;5010850;28;20032;-65
2023/04/24 02:33:58;;;;;;;15.40;10.10;;;;;;;13.43;52.23;97475.59;5010823;28;20022;-66
2023/04/24 02:36:23;;;;;;;14.23;9.65;;;;;;;13.44;51.90;97467.00;5010945;28;20074;-66
2023/04/24 02:38:48;;;;;;;14.55;9.38;;;;;;;13.46;51.86;97469.41;5010394;28;20018;-65
2023/04/24 02:41:14;;;;;;;14.88;10.07;;;;;;;13.44;51.65;97460.69;5009744;28;20026;-65
2023/04/24 02:43:39;;;;;;;12.77;9.00;;;;;;;13.45;52.17;97470.56;5010615;28;20479;-65
2023/04/24 02:46:05;;;;;;;14.13;9.40;;;;;;;13.45;51.57;97467.78;5010386;28;20033;-66
2023/04/24 02:48:30;;;;;;;13.23;9.10;;;;;;;13.45;51.60;97459.53;5010545;28;20041;-65
2023/04/24 02:50:55;;;;;;;13.85;8.85;;;;;;;13.47;51.87;97465.50;5010497;28;20030;-66
2023/04/24 02:53:21;;;;;;;14.13;8.90;;;;;;;13.48;51.63;97473.41;5010317;28;20539;-66
2023/04/24 02:55:46;;;;;;;14.23;10.02;;;;;;;13.49;51.60;97468.72;5010489;28;20603;-65
2023/04/24 02:58:12;;;;;;;14.10;8.65;;;;;;;13.49;51.79;97461.25;5010414;28;20018;-65
2023/04/24 03:00:38;;;;;;;16.25;9.02;;;;;;;13.50;51.72;97465.63;5010290;28;20460;-66
2023/04/24 03:03:04;;;;;;;12.18;8.80;;;;;;;13.50;51.48;97468.38;5010181;28;20053;-66
2023/04/24 03:05:30;;;;;;;12.52;9.18;;;;;;;13.50;51.56;97462.88;5010145;28;20026;-65
2023/04/24 03:07:56;;;;;;;13.45;8.90;;;;;;;13.50;51.55;97460.13;5010373;28;20033;-65
2023/04/24 03:10:24;;;;;;;13.43;8.70;;;;;;;13.51;51.70;97461.72;5010183;28;20409;-65
2023/04/24 03:12:49;;;;;;;14.02;9.52;;;;;;;13.51;51.50;97458.19;5010101;28;20106;-65
2023/04/24 03:15:16;;;;;;;13.43;9.10;;;;;;;13.51;52.04;97461.72;4992841;28;20471;-65
2023/04/24 03:17:41;;;;;;;14.32;9.00;;;;;;;13.51;51.59;97458.19;5010173;28;20030;-66
2023/04/24 03:20:10;;;;;;;13.30;9.35;;;;;;;13.49;51.70;97457.72;5010204;28;20071;-65
2023/04/24 03:22:36;;;;;;;13.80;8.63;;;;;;;13.48;51.68;97459.66;5010182;28;20056;-65
2023/04/24 03:25:02;;;;;;;13.88;8.73;;;;;;;13.49;51.51;97455.75;5009929;28;20535;-66
2023/04/24 03:27:27;;;;;;;13.63;8.43;;;;;;;13.49;51.50;97446.69;5010309;28;20030;-65
2023/04/24 03:29:55;;;;;;;14.20;8.45;;;;;;;13.50;51.27;97448.31;4992618;28;20051;-65
2023/04/24 03:32:22;;;;;;;13.02;8.45;;;;;;;13.50;51.50;97449.09;5010037;28;20034;-65
2023/04/24 03:34:48;;;;;;;13.85;8.10;;;;;;;13.51;51.43;97453.47;5009980;28;20043;-66
2023/04/24 03:37:13;;;;;;;13.52;8.32;;;;;;;13.52;51.29;97451.53;5009916;28;20109;-65
2023/04/24 03:39:38;;;;;;;13.40;8.02;;;;;;;13.52;51.31;97448.78;4992303;28;20086;-66
2023/04/24 03:42:04;;;;;;;12.15;7.80;;;;;;;13.52;51.73;97455.06;5010126;28;20037;-66
2023/04/24 03:44:29;;;;;;;10.18;7.90;;;;;;;13.52;51.26;97446.00;5009881;28;20018;-66
2023/04/24 03:46:54;;;;;;;14.32;8.50;;;;;;;13.52;51.35;97441.28;4992159;28;20115;-65
2023/04/24 03:49:20;;;;;;;16.33;9.00;;;;;;;13.52;51.50;97435.78;5009763;28;20022;-67
2023/04/24 03:51:45;;;;;;;20.55;9.98;;;;;;;13.53;51.29;97440.16;5011706;28;20026;-66
2023/04/24 03:54:11;;;;;;;20.65;11.27;;;;;;;13.52;51.38;97438.53;5013114;28;20049;-66
2023/04/24 03:56:36;;;;;;;21.88;10.45;;;;;;;13.51;51.37;97445.19;5012974;28;20042;-66
2023/04/24 03:59:13;;;;;;;18.30;11.68;;;;;;;13.43;51.33;97445.28;5013110;28;20451;-66
2023/04/24 04:01:39;;;;;;;20.05;11.60;;;;;;;13.37;51.11;97445.47;5081326;28;20032;-66
2023/04/24 04:04:05;;;;;;;18.13;11.48;;;;;;;13.35;51.34;97444.22;5012813;28;20050;-66
2023/04/24 04:06:33;;;;;;;17.27;11.30;;;;;;;13.36;51.52;97443.88;5012895;28;20110;-66
2023/04/24 04:08:58;;;;;;;16.30;10.70;;;;;;;13.36;51.51;97445.81;5012929;28;20034;-66
2023/04/24 04:11:24;;;;;;;18.38;10.55;;;;;;;13.35;51.34;97447.75;5012895;28;20022;-66
2023/04/24 04:13:50;;;;;;;17.63;10.77;;;;;;;13.37;51.73;97444.69;5012761;28;20086;-66
2023/04/24 04:16:18;;;;;;;19.50;10.60;;;;;;;13.36;51.55;97446.63;5012803;28;20029;-66
2023/04/24 04:18:44;;;;;;;16.33;10.90;;;;;;;13.37;51.76;97441.94;5012690;28;20026;-66
2023/04/24 04:21:10;;;;;;;17.48;11.35;;;;;;;13.38;51.69;97449.06;5012603;28;20026;-66
2023/04/24 04:23:35;;;;;;;19.23;11.38;;;;;;;13.38;51.57;97444.34;4995156;28;20029;-67
2023/04/24 04:26:01;;;;;;;31.65;15.95;;;;;;;13.40;51.78;97455.81;5012464;28;20522;-66
2023/04/24 04:28:27;;;;;;;42.15;18.73;;;;;;;13.42;51.85;97444.50;5012622;28;20026;-66
2023/04/24 04:30:57;;;;;;;39.83;17.52;;;;;;;13.42;51.83;97444.50;5012516;28;20097;-66
2023/04/24 04:33:22;;;;;;;;;;;;;;;13.45;51.78;97449.31;5012965;28;20395;-66
2023/04/24 04:35:56;;;;;;;18.08;11.68;;;;;;;13.46;51.77;97445.41;5012455;28;19917;-66
2023/04/24 04:38:22;;;;;;;18.23;11.43;;;;;;;13.47;52.10;97446.22;5012490;28;20029;-66
2023/04/24 04:40:47;;;;;;;19.23;11.23;;;;;;;13.47;51.96;97443.47;5012377;28;20030;-66
2023/04/24 04:43:14;;;;;;;18.98;11.00;;;;;;;13.48;51.85;97442.31;5012236;28;20073;-66
2023/04/24 04:45:42;;;;;;;18.60;11.00;;;;;;;13.49;51.79;97446.69;5012387;28;20041;-66
2023/04/24 04:48:08;;;;;;;16.77;10.48;;;;;;;13.49;51.79;97441.19;5012359;28;20029;-66
2023/04/24 04:50:37;;;;;;;16.80;10.43;;;;;;;13.51;51.89;97442.44;5012428;28;20460;-67
2023/04/24 04:53:02;;;;;;;16.45;10.73;;;;;;;13.54;52.10;97443.72;4994646;28;20116;-66
2023/04/24 04:55:28;;;;;;;15.20;10.50;;;;;;;13.58;52.06;97441.91;5012213;28;20120;-66
2023/04/24 04:57:53;;;;;;;15.70;10.18;;;;;;;13.62;52.03;97440.06;5012322;28;20030;-66
2023/04/24 05:00:19;;;;;;;17.63;10.50;;;;;;;13.65;52.09;97447.63;5012142;28;20132;-66
2023/04/24 05:02:44;;;;;;;16.48;10.18;;;;;;;13.70;52.03;97438.34;4993747;28;20045;-65
2023/04/24 05:05:10;;;;;;;20.10;11.10;;;;;;;13.76;52.36;97449.94;5012055;28;20360;-66
2023/04/24 05:07:36;;;;;;;19.15;11.32;;;;;;;13.81;52.42;97447.78;5012071;28;20029;-66
2023/04/24 05:10:01;;;;;;;21.20;12.05;;;;;;;13.87;52.49;97437.34;5011977;28;20033;-65
2023/04/24 05:12:27;;;;;;;27.40;12.80;;;;;;;13.93;52.56;97441.47;5012080;28;20079;-66
2023/04/24 05:14:52;;;;;;;28.58;13.85;;;;;;;14.01;52.64;97444.47;5011789;28;20125;-66
2023/04/24 05:17:18;;;;;;;29.65;13.82;;;;;;;14.09;52.65;97435.28;5011909;28;20034;-66
2023/04/24 05:19:43;;;;;;;26.55;12.55;;;;;;;14.17;52.65;97436.31;5011887;28;20026;-65
2023/04/24 05:22:09;;;;;;;18.17;10.40;;;;;;;14.22;53.04;97433.34;5011763;28;20022;-65
2023/04/24 05:24:35;;;;;;;18.88;10.60;;;;;;;14.27;52.79;97433.91;5011801;28;20022;-66
2023/04/24 05:27:02;;;;;;;13.85;9.38;;;;;;;14.35;52.99;97439.66;5011661;28;20044;-66
2023/04/24 05:29:28;;;;;;;14.02;9.25;;;;;;;14.42;53.08;97429.63;5011558;28;20487;-66
2023/04/24 05:31:53;;;;;;;12.88;8.85;;;;;;;14.51;53.26;97423.19;5011706;28;20097;-66
2023/04/24 05:34:18;;;;;;;12.55;7.88;;;;;;;14.59;53.06;97425.00;5011552;28;20057;-65
2023/04/24 05:36:46;;;;;;;12.27;7.90;;;;;;;14.69;53.10;97432.81;5010946;28;20467;-66
2023/04/24 05:39:11;;;;;;;10.60;7.43;;;;;;;14.80;53.03;97429.56;5009945;28;20491;-65
2023/04/24 05:41:36;;;;;;;9.70;6.18;;;;;;;14.91;52.70;97429.88;5009087;28;20022;-65
2023/04/24 05:44:02;;;;;;;11.48;7.00;;;;;;;15.02;52.63;97429.06;5008159;28;20044;-65
2023/04/24 05:46:27;;;;;;;11.80;6.47;;;;;;;15.12;52.42;97426.91;5008055;28;20388;-64
2023/04/24 05:48:53;;;;;;;7.47;5.68;;;;;;;15.23;51.86;97424.47;5003191;28;20086;-65
2023/04/24 05:51:18;;;;;;;10.55;5.70;;;;;;;15.36;51.49;97420.47;5010692;28;20082;-65
2023/04/24 05:53:43;;;;;;;9.00;5.75;;;;;;;15.50;51.41;97427.56;5028854;28;20051;-64
2023/04/24 05:56:09;;;;;;;12.40;6.82;;;;;;;15.63;51.14;97423.56;5015600;28;20109;-64
2023/04/24 05:58:34;;;;;;;11.25;6.63;;;;;;;15.73;51.19;97423.00;5009950;28;20026;-65
2023/04/24 06:01:01;;;;;;;13.48;8.68;;;;;;;15.86;51.09;97429.31;5027169;28;20022;-64
2023/04/24 06:03:27;;;;;;;11.68;8.13;;;;;;;16.00;51.28;97417.81;5012302;28;20468;-64
2023/04/24 06:05:53;;;;;;;12.75;7.22;;;;;;;16.09;51.29;97422.34;5020224;28;20037;-64
2023/04/24 06:08:18;;;;;;;8.07;6.00;;;;;;;16.19;50.55;97422.59;5009138;28;20026;-64
2023/04/24 06:10:44;;;;;;;9.52;7.32;;;;;;;16.28;50.59;97425.16;5027685;28;20022;-64
2023/04/24 06:13:09;;;;;;;14.25;8.13;;;;;;;16.34;50.26;97414.59;5009134;28;20034;-64
2023/04/24 06:15:35;;;;;;;11.25;6.15;;;;;;;16.42;50.30;97415.59;5025082;28;20483;-65
2023/04/24 06:18:00;;;;;;;7.57;5.05;;;;;;;16.51;49.31;97418.94;5016379;28;20395;-64
2023/04/24 06:20:26;;;;;;;7.07;4.38;;;;;;;16.60;48.87;97422.31;5015441;28;20027;-64
2023/04/24 06:22:51;;;;;;;5.30;4.05;;;;;;;16.67;48.68;97416.94;5010889;28;20102;-64
2023/04/24 06:25:18;;;;;;;5.90;4.20;;;;;;;16.77;47.91;97423.88;5009114;28;20812;-64
2023/04/24 06:27:44;;;;;;;8.02;4.75;;;;;;;16.85;47.29;97424.84;5008457;28;20022;-64
2023/04/24 06:30:10;;;;;;;7.65;4.60;;;;;;;16.87;46.73;97425.28;4991460;28;20053;-64
2023/04/24 06:32:35;;;;;;;6.15;4.50;;;;;;;16.91;47.08;97422.56;5010549;28;20052;-64
2023/04/24 06:35:00;;;;;;;7.32;4.50;;;;;;;16.95;46.84;97424.22;5008037;28;20017;-64
2023/04/24 06:37:26;;;;;;;7.25;4.20;;;;;;;17.01;46.26;97423.97;5014696;28;20075;-65
2023/04/24 06:39:51;;;;;;;5.82;4.68;;;;;;;17.04;46.36;97415.75;5010930;28;20021;-65
2023/04/24 06:42:17;;;;;;;8.35;5.22;;;;;;;17.10;46.24;97416.25;5009356;28;20037;-64
2023/04/24 06:44:42;;;;;;;7.13;4.95;;;;;;;17.17;46.00;97415.59;5007970;28;20030;-65
2023/04/24 06:47:09;;;;;;;8.32;5.00;;;;;;;17.21;46.09;97413.69;5014863;28;20368;-64
2023/04/24 06:49:35;;;;;;;8.38;5.25;;;;;;;17.27;46.06;97415.00;5008867;28;20052;-65
2023/04/24 06:52:01;;;;;;;10.85;5.18;;;;;;;17.33;45.80;97407.19;4997755;28;20234;-64
2023/04/24 06:54:26;;;;;;;7.85;4.95;;;;;;;17.41;45.51;97417.22;5009581;28;20030;-63
2023/04/24 06:56:52;;;;;;;8.07;4.97;;;;;;;17.46;45.58;97416.94;5027590;28;20065;-63
2023/04/24 06:59:17;;;;;;;6.60;5.00;;;;;;;17.48;45.17;97414.59;5011162;28;20585;-64
2023/04/24 07:01:43;;;;;;;6.25;4.97;;;;;;;17.54;45.39;97415.09;5015146;28;20094;-64
2023/04/24 07:04:08;;;;;;;6.57;4.95;;;;;;;17.60;44.95;97412.84;5008440;28;20072;-64
2023/04/24 07:06:35;;;;;;;5.75;4.80;;;;;;;17.66;44.78;97414.13;5015359;28;20030;-65
2023/04/24 07:09:01;;;;;;;7.57;4.88;;;;;;;17.70;44.80;97421.34;5008299;28;20026;-64
2023/04/24 07:11:28;;;;;;;5.05;4.50;;;;;;;17.73;44.36;97410.66;5010207;28;20093;-63
2023/04/24 07:13:55;;;;;;;6.95;4.78;;;;;;;17.79;44.67;97409.19;5022374;28;20039;-64
2023/04/24 07:16:20;;;;;;;8.18;5.00;;;;;;;17.83;44.36;97405.31;5015977;28;20065;-64
2023/04/24 07:18:45;;;;;;;6.20;4.55;;;;;;;17.89;44.49;97397.50;4993790;28;20113;-64
2023/04/24 07:21:11;;;;;;;5.75;4.50;;;;;;;17.95;44.13;97404.31;5008750;28;20053;-64
2023/04/24 07:23:36;;;;;;;7.35;5.07;;;;;;;18.00;44.21;97397.69;5008349;28;20041;-64
2023/04/24 07:26:02;;;;;;;6.40;4.53;;;;;;;18.03;44.13;97391.41;5009653;28;20034;-65
2023/04/24 07:28:30;;;;;;;8.38;4.95;;;;;;;18.08;43.77;97393.84;4994239;28;20092;-65
2023/04/24 07:30:57;;;;;;;7.72;4.85;;;;;;;18.15;43.69;97388.41;5012196;28;20030;-65
2023/04/24 07:33:22;;;;;;;5.80;4.28;;;;;;;18.21;43.41;97394.44;5011705;28;20030;-65
2023/04/24 07:35:48;;;;;;;6.45;4.70;;;;;;;18.30;43.56;97383.06;5012046;28;20400;-65
2023/04/24 07:38:13;;;;;;;6.47;4.60;;;;;;;18.37;43.06;97390.69;5011528;28;20026;-65
2023/04/24 07:40:39;;;;;;;7.20;4.55;;;;;;;18.43;43.17;97389.19;5016864;28;20037;-62
2023/04/24 07:43:04;;;;;;;7.93;4.22;;;;;;;18.49;42.52;97382.16;5031407;28;20498;-65
2023/04/24 07:45:31;;;;;;;9.43;3.92;;;;;;;18.57;42.64;97389.41;5009965;28;20131;-64
2023/04/24 07:47:56;;;;;;;7.25;4.10;;;;;;;18.64;42.45;97397.03;5013021;28;20026;-64
2023/04/24 07:50:22;;;;;;;6.70;3.85;;;;;;;18.67;42.42;97387.16;5012959;28;20266;-64
2023/04/24 07:52:47;;;;;;;7.28;3.75;;;;;;;18.68;41.91;97383.97;5035973;28;20132;-63
2023/04/24 07:55:13;;;;;;;8.25;4.43;;;;;;;18.71;41.65;97382.44;5011394;28;20029;-63
2023/04/24 07:57:38;;;;;;;5.88;3.58;;;;;;;18.70;41.03;97387.19;5010736;28;20382;-63
2023/04/24 08:00:05;;;;;;;6.53;3.80;;;;;;;18.73;41.02;97382.88;5010327;28;20072;-65
2023/04/24 08:02:31;;;;;;;6.45;3.90;;;;;;;18.80;41.59;97379.38;5010591;28;20041;-63
2023/04/24 08:04:56;;;;;;;8.02;4.20;;;;;;;18.88;40.40;97381.06;5011038;28;20026;-64
2023/04/24 08:07:23;;;;;;;6.72;3.72;;;;;;;18.91;40.34;97377.53;5011780;28;20055;-63
2023/04/24 08:09:48;;;;;;;4.95;3.70;;;;;;;18.98;40.88;97376.84;5010098;28;20033;-65
2023/04/24 08:12:14;;;;;;;6.32;3.90;;;;;;;19.04;40.46;97370.56;5000432;28;20030;-65
2023/04/24 08:14:39;;;;;;;5.28;3.67;;;;;;;19.11;40.53;97369.84;5016002;28;20026;-64
2023/04/24 08:17:05;;;;;;;5.47;3.88;;;;;;;19.22;40.91;97374.72;5044942;28;20041;-63
2023/04/24 08:19:30;;;;;;;5.93;3.97;;;;;;;19.31;40.73;97384.38;5015035;28;20068;-64
2023/04/24 08:21:55;;;;;;;7.45;4.22;;;;;;;19.37;40.08;97382.03;5011471;28;20449;-64
2023/04/24 08:24:22;;;;;;;7.00;3.75;;;;;;;19.40;40.01;97378.50;5010138;28;20037;-64
2023/04/24 08:26:51;;;;;;;5.88;4.45;;;;;;;19.46;39.88;97381.72;5010290;28;20423;-64
2023/04/24 08:29:16;;;;;;;5.00;3.35;;;;;;;19.51;40.07;97373.03;5011641;28;20033;-64
2023/04/24 08:31:42;;;;;;;6.85;3.70;;;;;;;19.58;40.16;97363.94;5010801;28;20403;-64
2023/04/24 08:34:07;;;;;;;7.03;3.80;;;;;;;19.67;40.21;97363.66;5010962;28;20376;-65
2023/04/24 08:36:33;;;;;;;5.43;3.75;;;;;;;19.71;39.58;97365.25;5011506;28;20022;-65
2023/04/24 08:38:58;;;;;;;4.55;4.00;;;;;;;19.75;39.25;97368.09;5010281;28;20116;-64
2023/04/24 08:41:26;;;;;;;6.38;3.97;;;;;;;19.79;39.67;97372.50;5012007;28;20401;-63
2023/04/24 08:43:52;;;;;;;6.88;3.92;;;;;;;19.81;39.56;97369.31;5011725;28;20036;-63
2023/04/24 08:46:19;;;;;;;5.40;3.60;;;;;;;19.81;38.88;97369.31;5011710;28;20048;-62
2023/04/24 08:48:45;;;;;;;3.55;3.25;;;;;;;19.79;38.96;97360.56;5011225;28;20022;-63
2023/04/24 08:51:11;;;;;;;8.27;4.05;;;;;;;19.79;39.28;97361.38;5011557;28;20491;-63
2023/04/24 08:53:37;;;;;;;5.38;4.65;;;;;;;19.81;38.78;97369.31;5012010;28;20107;-63
2023/04/24 08:56:03;;;;;;;6.78;4.65;;;;;;;19.75;38.06;97363.31;5011547;28;20030;-66
2023/04/24 08:58:29;;;;;;;6.00;4.38;;;;;;;19.72;38.09;97368.84;5011868;28;20032;-63
2023/04/24 09:00:55;;;;;;;3.90;3.50;;;;;;;19.68;38.22;97360.47;5011648;28;20057;-64
2023/04/24 09:03:21;;;;;;;5.68;3.80;;;;;;;19.69;38.53;97361.28;5011496;28;20084;-64
2023/04/24 09:05:47;;;;;;;3.53;3.20;;;;;;;19.75;38.86;97363.31;4993719;28;20034;-63
2023/04/24 09:08:15;;;;;;;4.78;3.30;;;;;;;19.86;39.42;97352.25;5011670;28;20384;-62
2023/04/24 09:10:41;;;;;;;4.40;3.42;;;;;;;19.98;39.30;97351.19;5011500;28;20030;-63
2023/04/24 09:13:09;;;;;;;4.18;3.40;;;;;;;20.06;39.47;97354.84;5011570;28;20036;-63
2023/04/24 09:15:34;;;;;;;4.78;3.65;;;;;;;20.13;39.38;97360.47;5011096;28;20061;-63
2023/04/24 09:18:01;;;;;;;5.18;3.55;;;;;;;20.19;39.07;97355.31;5011384;28;20455;-65
2023/04/24 09:20:26;;;;;;;7.95;3.78;;;;;;;20.23;38.73;97354.16;5011070;28;20026;-65
2023/04/24 09:22:55;;;;;;;7.95;4.50;;;;;;;20.22;38.51;97365.69;5010836;28;20040;-65
2023/04/24 09:25:21;;;;;;;4.35;3.90;;;;;;;20.25;38.60;97358.53;5011058;28;20030;-66
2023/04/24 09:27:46;;;;;;;4.82;3.80;;;;;;;20.25;38.55;97353.78;5011339;28;20034;-65
2023/04/24 09:30:13;;;;;;;3.95;3.42;;;;;;;20.28;38.66;97357.75;5011340;28;20395;-66
2023/04/24 09:32:38;;;;;;;6.72;3.65;;;;;;;20.32;38.57;97347.44;5011251;28;20150;-65
2023/04/24 09:35:13;;;;;;;4.78;4.10;;;;;;;20.38;38.67;97354.25;5011051;28;20052;-65
2023/04/24 09:37:44;;;;;;;6.88;3.80;;;;;;;20.44;38.58;97354.66;5010941;28;20054;-66
2023/04/24 09:40:16;;;;;;;6.18;4.00;;;;;;;20.46;38.40;97347.53;5009743;28;20105;-65
2023/04/24 09:42:52;;;;;;;8.45;4.45;;;;;;;20.52;38.93;97347.94;4993575;28;20029;-66
2023/04/24 09:45:18;;;;;;;5.15;4.00;;;;;;;20.61;38.69;97347.59;5010986;28;20026;-66
2023/04/24 09:47:43;;;;;;;5.03;3.88;;;;;;;20.68;38.77;97342.88;5010699;28;20030;-67
2023/04/24 09:50:16;;;;;;;5.88;4.30;;;;;;;20.73;38.06;97350.03;5010532;28;20104;-67
2023/04/24 09:52:43;;;;;;;6.70;3.85;;;;;;;20.68;37.80;97348.44;5010918;28;20049;-68
2023/04/24 09:55:16;;;;;;;5.78;4.05;;;;;;;20.71;37.81;97351.63;4993213;28;20032;-66
2023/04/24 09:57:52;;;;;;;6.90;4.30;;;;;;;20.67;37.03;97351.59;5010689;28;20041;-66
2023/04/24 10:00:21;;;;;;;6.68;4.30;;;;;;;20.60;36.83;97351.56;5009901;28;20022;-66
2023/04/24 10:02:50;;;;;;;7.95;4.25;;;;;;;20.56;36.72;97350.75;5007277;28;20042;-66
2023/04/24 10:05:15;;;;;;;7.03;4.30;;;;;;;20.51;37.00;97352.72;5009624;28;20117;-66
2023/04/24 10:07:43;;;;;;;7.22;4.22;;;;;;;20.50;37.18;97348.34;5009991;28;20729;-66
2023/04/24 10:10:09;;;;;;;4.68;4.28;;;;;;;20.48;36.74;97342.38;5010125;28;20061;-66
2023/04/24 10:12:34;;;;;;;6.22;4.40;;;;;;;20.46;36.80;97341.97;5009770;28;20512;-66
2023/04/24 10:15:01;;;;;;;5.35;4.45;;;;;;;20.44;37.03;97341.56;5010148;28;20025;-66
2023/04/24 10:17:28;;;;;;;5.97;4.78;;;;;;;20.37;36.99;97350.66;4991809;28;20250;-67
2023/04/24 10:19:55;;;;;;;6.63;4.13;;;;;;;20.35;36.85;97352.22;5008904;28;20500;-66
2023/04/24 10:22:21;;;;;;;8.40;4.75;;;;;;;20.26;36.96;97352.59;5009780;28;20026;-66
2023/04/24 10:24:49;;;;;;;5.88;4.30;;;;;;;20.21;37.13;97362.09;5008104;28;20494;-68
2023/04/24 10:27:15;;;;;;;6.13;4.75;;;;;;;20.18;37.22;97357.28;5008364;28;20065;-67
2023/04/24 10:29:42;;;;;;;5.90;4.47;;;;;;;20.16;37.56;97361.66;5008844;28;20022;-66
2023/04/24 10:32:09;;;;;;;9.02;4.68;;;;;;;20.12;37.54;97364.44;5007089;28;20033;-66
2023/04/24 10:34:35;;;;;;;9.38;4.75;;;;;;;20.05;37.10;97362.38;5014882;28;20151;-65
2023/04/24 10:37:02;;;;;;;9.00;4.80;;;;;;;19.91;37.06;97362.28;4989237;28;20030;-67
2023/04/24 10:39:28;;;;;;;7.60;4.13;;;;;;;19.75;37.47;97356.97;5007943;28;20551;-66
2023/04/24 10:41:58;;;;;;;6.45;4.28;;;;;;;19.68;37.92;97363.25;5007117;28;20371;-67
2023/04/24 10:44:24;;;;;;;6.05;4.50;;;;;;;19.61;37.96;97365.97;5008330;28;20078;-67
2023/04/24 10:46:54;;;;;;;8.02;5.00;;;;;;;19.55;37.97;97357.19;5008775;28;20485;-65
2023/04/24 10:49:29;;;;;;;7.22;4.43;;;;;;;19.46;37.98;97367.81;5009809;28;20028;-66
2023/04/24 10:52:01;;;;;;;8.80;4.70;;;;;;;19.38;38.22;97363.34;5008035;28;20483;-66
2023/04/24 10:54:40;;;;;;;8.95;4.55;;;;;;;19.31;38.64;97364.91;5006145;28;20435;-65
2023/04/24 10:57:18;;;;;;;;;;;;;;;19.30;38.85;97362.50;5007923;28;20053;-66
2023/04/24 10:59:44;;;;;;;6.82;4.15;;;;;;;19.26;38.66;97365.25;5019004;28;19925;-67
2023/04/24 11:02:09;;;;;;;9.70;4.45;;;;;;;19.27;39.11;97354.91;5006666;28;20052;-68
2023/04/24 11:04:35;;;;;;;7.15;4.90;;;;;;;19.32;39.14;97368.47;5001627;28;20019;-66
2023/04/24 11:07:02;;;;;;;5.45;4.20;;;;;;;19.38;39.23;97363.34;5007705;28;20034;-66
2023/04/24 11:09:29;;;;;;;6.13;4.10;;;;;;;19.41;39.00;97360.63;5008297;28;20555;-67
2023/04/24 11:12:07;;;;;;;5.88;4.30;;;;;;;19.47;39.02;97366.63;5008964;28;20110;-66
2023/04/24 11:14:59;;;;;;;4.85;3.85;;;;;;;19.51;39.13;97367.47;5018878;28;20022;-67
2023/04/24 11:17:39;;;;;;;6.28;5.07;;;;;;;19.56;39.03;97358.78;5009911;28;20105;-67
2023/04/24 11:20:10;;;;;;;4.55;4.07;;;;;;;19.59;39.31;97362.75;5017074;28;20022;-67
2023/04/24 11:22:42;;;;;;;7.30;4.40;;;;;;;19.64;39.00;97368.78;5007978;28;20026;-67